createdAt,value
2023-02-25T00:01:14.761Z,93933.16
2023-02-25T00:03:44.989Z,93950.78
2023-02-25T00:06:14.606Z,93934.47
2023-02-25T00:08:45.459Z,93944.97
2023-02-25T00:11:14.939Z,93941.91
2023-02-25T00:13:44.095Z,93949.50
2023-02-25T00:16:13.415Z,93961.84
2023-02-25T00:18:44.417Z,93920.38
2023-02-25T00:21:16.121Z,93921.56
2023-02-25T00:23:45.915Z,93936.59
2023-02-25T00:26:14.689Z,93939.75
2023-02-25T00:28:43.213Z,93937.22
2023-02-25T00:31:13.625Z,93926.41
2023-02-25T00:33:42.218Z,93922.06
2023-02-25T00:36:12.945Z,93911.91
2023-02-25T00:38:42.318Z,93916.75
2023-02-25T00:41:12.750Z,93926.25
2023-02-25T00:43:42.215Z,93922.06
2023-02-25T00:46:10.663Z,93892.56
2023-02-25T00:48:38.813Z,93905.59
2023-02-25T00:51:08.944Z,93909.13
2023-02-25T00:53:37.865Z,93898.84
2023-02-25T00:56:09.138Z,93898.69
2023-02-25T00:58:37.769Z,93909.63
2023-02-25T01:01:08.397Z,93897.06
2023-02-25T01:03:36.301Z,93898.19
2023-02-25T01:06:04.453Z,93881.72
2023-02-25T01:08:33.120Z,93876.91
2023-02-25T01:11:01.033Z,93884.78
2023-02-25T01:13:30.313Z,93872.88
2023-02-25T01:15:58.230Z,93857.34
2023-02-25T01:18:26.255Z,93874.34
2023-02-25T01:20:54.115Z,93866.28
2023-02-25T01:23:23.382Z,93858.84
2023-02-25T01:25:51.273Z,93862.72
2023-02-25T01:28:19.814Z,93869.50
2023-02-25T01:30:49.293Z,93874.31
2023-02-25T01:33:17.327Z,93868.66
2023-02-25T01:35:45.222Z,93843.53
2023-02-25T01:38:13.139Z,93876.25
2023-02-25T01:40:41.089Z,93871.56
2023-02-25T01:43:15.868Z,93854.94
2023-02-25T01:45:45.368Z,93867.53
2023-02-25T01:48:19.759Z,93852.84
2023-02-25T01:50:51.797Z,93856.41
2023-02-25T01:53:23.048Z,93862.06
2023-02-25T01:55:51.544Z,93859.63
2023-02-25T01:58:19.931Z,93858.34
2023-02-25T02:00:48.593Z,93864.78
2023-02-25T02:03:17.961Z,93871.88
2023-02-25T02:05:56.485Z,93867.22
2023-02-25T02:08:26.420Z,93855.78
2023-02-25T02:10:55.688Z,93855.44
2023-02-25T02:13:24.098Z,93847.06
2023-02-25T02:16:00.859Z,93859.16
2023-02-25T02:18:36.361Z,93848.34
2023-02-25T02:21:19.640Z,93844.66
2023-02-25T02:24:08.095Z,93836.09
2023-02-25T02:26:54.561Z,93832.56
2023-02-25T02:30:01.647Z,93832.75
2023-02-25T02:32:37.325Z,93815.47
2023-02-25T02:35:14.982Z,93816.91
2023-02-25T02:37:53.533Z,93826.09
2023-02-25T02:40:31.107Z,93827.56
2023-02-25T02:43:09.716Z,93826.75
2023-02-25T02:45:44.962Z,93816.75
2023-02-25T02:48:18.124Z,93815.94
2023-02-25T02:50:49.065Z,93800.97
2023-02-25T02:53:21.456Z,93792.91
2023-02-25T02:55:52.716Z,93803.69
2023-02-25T02:58:25.153Z,93802.72
2023-02-25T03:00:59.151Z,93792.06
2023-02-25T03:03:37.299Z,93788.06
2023-02-25T03:06:08.933Z,93798.50
2023-02-25T03:08:44.827Z,93805.63
2023-02-25T03:11:12.973Z,93792.91
2023-02-25T03:13:40.930Z,93807.91
2023-02-25T03:16:13.625Z,93796.94
2023-02-25T03:18:51.063Z,93819.66
2023-02-25T03:21:22.788Z,93825.97
2023-02-25T03:23:52.567Z,93801.94
2023-02-25T03:26:27.805Z,93788.22
2023-02-25T03:28:55.859Z,93810.31
2023-02-25T03:31:30.552Z,93796.16
2023-02-25T03:34:04.156Z,93795.19
2023-02-25T03:36:35.409Z,93810.16
2023-02-25T03:39:09.897Z,93800.16
2023-02-25T03:41:40.930Z,93802.13
2023-02-25T03:44:13.678Z,93804.34
2023-02-25T03:46:45.194Z,93800.00
2023-02-25T03:49:20.500Z,93781.31
2023-02-25T03:51:51.161Z,93782.13
2023-02-25T03:54:19.109Z,93796.63
2023-02-25T03:56:50.055Z,93774.06
2023-02-25T03:59:19.304Z,93776.00
2023-02-25T04:01:50.567Z,93783.09
2023-02-25T04:04:19.879Z,93785.19
2023-02-25T04:06:47.788Z,93795.31
2023-02-25T04:09:15.744Z,93789.88
2023-02-25T04:11:43.699Z,93782.44
2023-02-25T04:14:11.595Z,93779.22
2023-02-25T04:16:39.472Z,93803.22
2023-02-25T04:19:07.430Z,93805.16
2023-02-25T04:21:38.082Z,93801.44
2023-02-25T04:24:07.139Z,93809.97
2023-02-25T04:26:35.872Z,93795.16
2023-02-25T04:29:04.414Z,93764.72
2023-02-25T04:31:32.849Z,93783.22
2023-02-25T04:34:00.829Z,93770.69
2023-02-25T04:36:31.686Z,93766.19
2023-02-25T04:39:02.846Z,93759.88
2023-02-25T04:41:32.595Z,93765.69
2023-02-25T04:44:00.951Z,93769.53
2023-02-25T04:46:28.926Z,93763.44
2023-02-25T04:48:57.179Z,93733.97
2023-02-25T04:51:25.030Z,93729.13
2023-02-25T04:53:53.003Z,93739.75
2023-02-25T04:56:22.610Z,93738.78
2023-02-25T04:58:50.673Z,93745.06
2023-02-25T05:01:18.838Z,93740.72
2023-02-25T05:03:46.935Z,93744.59
2023-02-25T05:06:14.838Z,93731.88
2023-02-25T05:08:42.815Z,93722.53
2023-02-25T05:11:10.736Z,93721.88
2023-02-25T05:13:39.979Z,93717.53
2023-02-25T05:16:10.503Z,93721.91
2023-02-25T05:18:39.047Z,93732.00
2023-02-25T05:21:10.468Z,93728.00
2023-02-25T05:23:38.314Z,93723.63
2023-02-25T05:26:06.360Z,93744.59
2023-02-25T05:28:34.250Z,93731.88
2023-02-25T05:31:06.166Z,93736.41
2023-02-25T05:33:34.288Z,93721.25
2023-02-25T05:36:02.198Z,93709.00
2023-02-25T05:38:30.161Z,93769.72
2023-02-25T05:41:00.562Z,93765.38
2023-02-25T05:43:28.472Z,93755.84
2023-02-25T05:45:57.599Z,93774.06
2023-02-25T05:48:27.234Z,93792.28
2023-02-25T05:51:02.643Z,93772.53
2023-02-25T05:53:30.684Z,93770.03
2023-02-25T05:55:58.614Z,93803.66
2023-02-25T05:58:26.840Z,93768.75
2023-02-25T06:00:54.772Z,93789.22
2023-02-25T06:03:22.735Z,93794.38
2023-02-25T06:05:53.195Z,93789.69
2023-02-25T06:08:21.011Z,93779.22
2023-02-25T06:10:49.092Z,93785.66
2023-02-25T06:13:17.034Z,93808.06
2023-02-25T06:15:47.312Z,93805.31
2023-02-25T06:18:16.430Z,93785.03
2023-02-25T06:20:44.453Z,93797.59
2023-02-25T06:23:13.778Z,93763.91
2023-02-25T06:25:41.698Z,93783.22
2023-02-25T06:28:09.650Z,93796.63
2023-02-25T06:30:37.969Z,93783.56
2023-02-25T06:33:05.895Z,93797.72
2023-02-25T06:35:36.147Z,93801.78
2023-02-25T06:38:04.204Z,93799.50
2023-02-25T06:40:34.242Z,93780.94
2023-02-25T06:43:02.116Z,93780.59
2023-02-25T06:45:30.261Z,93789.06
2023-02-25T06:47:58.734Z,93772.94
2023-02-25T06:50:26.678Z,93792.34
2023-02-25T06:52:54.696Z,93782.31
2023-02-25T06:55:22.578Z,93773.75
2023-02-25T06:57:54.745Z,93766.59
2023-02-25T07:00:23.336Z,93770.47
2023-02-25T07:02:51.484Z,93760.03
2023-02-25T07:05:19.529Z,93753.50
2023-02-25T07:07:47.395Z,93750.00
2023-02-25T07:10:15.331Z,93732.97
2023-02-25T07:12:43.281Z,93721.53
2023-02-25T07:15:12.761Z,93730.75
2023-02-25T07:17:40.684Z,93720.47
2023-02-25T07:20:09.893Z,93722.72
2023-02-25T07:22:37.812Z,93725.13
2023-02-25T07:25:07.487Z,93735.50
2023-02-25T07:27:35.426Z,93726.56
2023-02-25T07:30:03.539Z,93702.88
2023-02-25T07:32:34.051Z,93695.66
2023-02-25T07:35:01.958Z,93692.13
2023-02-25T07:37:29.780Z,93698.38
2023-02-25T07:40:00.793Z,93692.53
2023-02-25T07:42:28.924Z,93678.84
2023-02-25T07:44:56.903Z,93673.41
2023-02-25T07:47:24.847Z,93666.84
2023-02-25T07:49:54.125Z,93658.44
2023-02-25T07:52:22.061Z,93660.34
2023-02-25T07:54:50.012Z,93657.81
2023-02-25T07:57:17.940Z,93646.38
2023-02-25T07:59:45.864Z,93642.66
2023-02-25T08:02:14.214Z,93654.94
2023-02-25T08:04:42.381Z,93648.03
2023-02-25T08:07:11.639Z,93632.53
2023-02-25T08:09:39.708Z,93627.19
2023-02-25T08:12:07.559Z,93638.41
2023-02-25T08:14:35.536Z,93657.06
2023-02-25T08:17:03.421Z,93637.66
2023-02-25T08:19:31.403Z,93622.72
2023-02-25T08:22:00.308Z,93632.47
2023-02-25T08:24:29.556Z,93619.72
2023-02-25T08:26:57.503Z,93636.53
2023-02-25T08:29:25.386Z,93643.50
2023-02-25T08:31:54.001Z,93628.31
2023-02-25T08:34:22.114Z,93628.94
2023-02-25T08:36:49.986Z,93635.59
2023-02-25T08:39:18.508Z,93620.19
2023-02-25T08:41:47.816Z,93615.78
2023-02-25T08:44:15.690Z,93606.97
2023-02-25T08:46:43.626Z,93615.38
2023-02-25T08:49:11.560Z,93607.19
2023-02-25T08:51:40.756Z,93591.97
2023-02-25T08:54:10.529Z,93590.59
2023-02-25T08:56:40.342Z,93596.75
2023-02-25T08:59:10.170Z,93602.75
2023-02-25T09:01:46.291Z,93603.41
2023-02-25T09:04:15.761Z,93614.19
2023-02-25T09:06:47.489Z,93584.78
2023-02-25T09:09:15.913Z,93602.38
2023-02-25T09:11:44.781Z,93604.19
2023-02-25T09:14:14.789Z,93593.38
2023-02-25T09:16:42.810Z,93587.56
2023-02-25T09:19:12.600Z,93598.97
2023-02-25T09:21:41.337Z,93582.78
2023-02-25T09:24:10.327Z,93578.78
2023-02-25T09:26:38.894Z,93587.78
2023-02-25T09:29:08.254Z,93575.75
2023-02-25T09:31:39.789Z,93560.78
2023-02-25T09:34:10.229Z,93547.19
2023-02-25T09:36:38.430Z,93570.97
2023-02-25T09:39:10.311Z,93561.16
2023-02-25T09:41:47.993Z,93547.75
2023-02-25T09:44:19.435Z,93550.34
2023-02-25T09:46:52.468Z,93527.59
2023-02-25T09:49:27.268Z,93534.19
2023-02-25T09:52:02.130Z,93506.78
2023-02-25T09:54:35.975Z,93524.97
2023-02-25T09:57:07.449Z,93530.56
2023-02-25T09:59:35.770Z,93524.56
2023-02-25T10:02:22.272Z,93530.56
2023-02-25T10:05:07.181Z,93536.97
2023-02-25T10:07:37.749Z,93541.94
2023-02-25T10:10:14.552Z,93504.34
2023-02-25T10:12:51.749Z,93509.16
2023-02-25T10:15:33.534Z,93483.56
2023-02-25T10:18:15.338Z,93487.94
2023-02-25T10:21:07.758Z,93500.09
2023-02-25T10:23:48.804Z,93480.28
2023-02-25T10:26:20.929Z,93464.25
2023-02-25T10:28:52.170Z,93448.59
2023-02-25T10:31:23.368Z,93469.25
2023-02-25T10:33:54.902Z,93445.75
2023-02-25T10:36:28.674Z,93445.53
2023-02-25T10:38:57.085Z,93462.63
2023-02-25T10:41:26.783Z,93446.81
2023-02-25T10:43:56.019Z,93445.81
2023-02-25T10:46:31.396Z,93447.41
2023-02-25T10:49:02.512Z,93437.78
2023-02-25T10:51:30.730Z,93436.94
2023-02-25T10:54:07.553Z,93443.59
2023-02-25T10:56:42.753Z,93430.88
2023-02-25T10:59:29.422Z,93431.84
2023-02-25T11:02:00.232Z,93411.44
2023-02-25T11:04:35.771Z,93415.19
2023-02-25T11:07:24.069Z,93413.53
2023-02-25T11:10:09.330Z,93409.53
2023-02-25T11:12:43.132Z,93423.78
2023-02-25T11:15:43.809Z,93404.56
2023-02-25T11:18:19.526Z,93393.28
2023-02-25T11:20:54.712Z,93383.47
2023-02-25T11:23:28.156Z,93390.41
2023-02-25T11:25:56.452Z,93383.34
2023-02-25T11:28:30.218Z,93376.59
2023-02-25T11:31:07.243Z,93370.16
2023-02-25T11:33:38.719Z,93370.72
2023-02-25T11:36:09.121Z,93365.56
2023-02-25T11:38:39.613Z,93362.69
2023-02-25T11:41:18.758Z,93370.97
2023-02-25T11:43:46.734Z,93374.75
2023-02-25T11:46:23.198Z,93380.47
2023-02-25T11:48:54.230Z,93375.88
2023-02-25T11:51:30.576Z,93364.56
2023-02-25T11:54:12.634Z,93378.47
2023-02-25T11:56:48.498Z,93375.00
2023-02-25T11:59:30.220Z,93374.09
2023-02-25T12:02:18.100Z,93380.25
2023-02-25T12:05:07.949Z,93370.81
2023-02-25T12:08:13.818Z,93389.22
2023-02-25T12:11:09.752Z,93387.84
2023-02-25T12:14:08.504Z,93386.59
2023-02-25T12:17:08.853Z,93394.84
2023-02-25T12:20:27.684Z,93390.28
2023-02-25T12:23:41.273Z,93391.97
2023-02-25T12:26:15.684Z,93393.78
2023-02-25T12:29:06.384Z,93387.31
2023-02-25T12:31:58.121Z,93367.19
2023-02-25T12:35:01.190Z,93367.19
2023-02-25T12:37:46.784Z,93337.66
2023-02-25T12:40:35.120Z,93331.63
2023-02-25T12:43:19.278Z,93336.47
2023-02-25T12:46:20.648Z,93334.53
2023-02-25T12:49:15.249Z,93336.56
2023-02-25T12:52:04.038Z,93307.50
2023-02-25T12:55:08.158Z,93321.16
2023-02-25T12:57:49.913Z,93286.16
2023-02-25T13:00:35.526Z,93296.53
2023-02-25T13:03:25.682Z,93304.34
2023-02-25T13:06:07.673Z,93300.25
2023-02-25T13:08:53.469Z,93301.00
2023-02-25T13:11:34.610Z,93291.03
2023-02-25T13:14:23.033Z,93297.28
2023-02-25T13:17:10.004Z,93286.34
2023-02-25T13:19:55.790Z,93305.16
2023-02-25T13:22:41.211Z,93283.63
2023-02-25T13:25:15.972Z,93281.34
2023-02-25T13:28:00.756Z,93269.03
2023-02-25T13:30:39.249Z,93268.94
2023-02-25T13:33:29.649Z,93281.19
2023-02-25T13:36:09.369Z,93280.72
2023-02-25T13:39:02.124Z,93255.22
2023-02-25T13:41:42.854Z,93281.34
2023-02-25T13:44:23.580Z,93284.91
2023-02-25T13:47:11.271Z,93266.03
2023-02-25T13:49:58.937Z,93272.38
2023-02-25T13:52:31.619Z,93272.88
2023-02-25T13:55:25.069Z,93275.75
2023-02-25T13:58:13.904Z,93273.16
2023-02-25T14:01:22.489Z,93270.94
2023-02-25T14:04:39.086Z,93269.00
2023-02-25T14:07:30.393Z,93267.22
2023-02-25T14:10:13.409Z,93249.66
2023-02-25T14:12:54.389Z,93252.28
2023-02-25T14:15:36.835Z,93267.84
2023-02-25T14:18:46.670Z,93252.19
2023-02-25T14:21:37.444Z,93256.00
2023-02-25T14:24:13.070Z,93248.81
2023-02-25T14:26:51.911Z,93237.84
2023-02-25T14:29:29.782Z,93239.31
2023-02-25T14:32:16.265Z,93236.94
2023-02-25T14:34:56.090Z,93235.91
2023-02-25T14:37:35.837Z,93258.31
2023-02-25T14:40:23.982Z,93246.97
2023-02-25T14:43:11.150Z,93273.81
2023-02-25T14:45:44.579Z,93271.44
2023-02-25T14:48:18.062Z,93269.56
2023-02-25T14:50:51.737Z,93257.25
2023-02-25T14:54:08.434Z,93287.28
2023-02-25T14:56:49.048Z,93278.28
2023-02-25T14:59:38.594Z,93288.88
2023-02-25T15:02:31.198Z,93300.50
2023-02-25T15:05:30.260Z,93306.94
2023-02-25T15:08:24.634Z,93307.69
2023-02-25T15:11:08.874Z,93315.50
2023-02-25T15:14:12.747Z,93322.19
2023-02-25T15:17:00.449Z,93317.22
2023-02-25T15:19:53.443Z,93311.84
2023-02-25T15:22:25.031Z,93309.94
2023-02-25T15:24:54.118Z,93304.38
2023-02-25T15:27:50.047Z,93305.88
2023-02-25T15:30:22.858Z,93309.19
2023-02-25T15:33:07.765Z,93314.66
2023-02-25T15:35:59.996Z,93310.41
2023-02-25T15:38:43.246Z,93304.63
2023-02-25T15:41:40.836Z,93306.81
2023-02-25T15:44:40.086Z,93312.97
2023-02-25T15:47:25.783Z,93301.72
2023-02-25T15:49:55.328Z,93315.16
2023-02-25T15:52:52.706Z,93317.19
2023-02-25T15:55:33.480Z,93324.72
2023-02-25T15:58:01.383Z,93317.09
2023-02-25T16:01:02.721Z,93317.19
2023-02-25T16:03:43.126Z,93318.56
2023-02-25T16:06:18.974Z,93324.38
2023-02-25T16:09:02.519Z,93315.66
2023-02-25T16:11:37.735Z,93312.13
2023-02-25T16:14:09.131Z,93302.34
2023-02-25T16:16:42.797Z,93303.91
2023-02-25T16:19:17.815Z,93305.97
2023-02-25T16:21:50.217Z,93315.97
2023-02-25T16:24:19.804Z,93335.88
2023-02-25T16:26:58.908Z,93309.03
2023-02-25T16:29:55.597Z,93316.97
2023-02-25T16:32:35.665Z,93326.63
2023-02-25T16:35:11.184Z,93321.88
2023-02-25T16:37:45.881Z,93308.22
2023-02-25T16:40:18.425Z,93320.47
2023-02-25T16:42:47.256Z,93315.03
2023-02-25T16:45:25.958Z,93339.06
2023-02-25T16:48:01.177Z,93324.81
2023-02-25T16:50:32.536Z,93327.75
2023-02-25T16:53:01.545Z,93338.00
2023-02-25T16:55:33.600Z,93335.88
2023-02-25T16:58:03.167Z,93364.53
2023-02-25T17:00:31.159Z,93355.19
2023-02-25T17:03:01.588Z,93351.91
2023-02-25T17:05:33.551Z,93375.00
2023-02-25T17:08:04.644Z,93361.81
2023-02-25T17:10:34.773Z,93363.72
2023-02-25T17:13:04.744Z,93365.88
2023-02-25T17:15:35.922Z,93359.19
2023-02-25T17:18:09.751Z,93363.06
2023-02-25T17:20:39.227Z,93374.78
2023-02-25T17:23:11.377Z,93353.16
2023-02-25T17:25:42.080Z,93365.00
2023-02-25T17:28:20.651Z,93366.25
2023-02-25T17:30:48.559Z,93384.56
2023-02-25T17:33:26.320Z,93356.03
2023-02-25T17:35:58.388Z,93363.63
2023-02-25T17:38:29.084Z,93353.16
2023-02-25T17:40:59.184Z,93347.34
2023-02-25T17:43:39.785Z,93352.47
2023-02-25T17:46:18.737Z,93357.47
2023-02-25T17:48:53.026Z,93343.94
2023-02-25T17:51:31.201Z,93335.19
2023-02-25T17:54:05.046Z,93358.50
2023-02-25T17:56:34.508Z,93334.06
2023-02-25T17:59:05.797Z,93343.63
2023-02-25T18:01:48.149Z,93329.09
2023-02-25T18:04:25.491Z,93327.03
2023-02-25T18:06:55.524Z,93317.03
2023-02-25T18:09:40.175Z,93306.34
2023-02-25T18:12:15.574Z,93322.38
2023-02-25T18:14:45.804Z,93318.16
2023-02-25T18:17:22.663Z,93327.38
2023-02-25T18:19:50.952Z,93315.19
2023-02-25T18:22:33.976Z,93308.13
2023-02-25T18:25:03.602Z,93328.03
2023-02-25T18:27:33.496Z,93323.06
2023-02-25T18:30:18.133Z,93320.28
2023-02-25T18:32:46.210Z,93314.97
2023-02-25T18:35:15.186Z,93318.63
2023-02-25T18:37:45.703Z,93330.22
2023-02-25T18:40:17.616Z,93328.59
2023-02-25T18:42:45.608Z,93320.41
2023-02-25T18:45:16.227Z,93327.50
2023-02-25T18:47:44.172Z,93331.66
2023-02-25T18:50:12.910Z,93338.38
2023-02-25T18:52:42.046Z,93323.81
2023-02-25T18:55:18.433Z,93339.88
2023-02-25T18:57:46.651Z,93324.97
2023-02-25T19:00:16.637Z,93329.63
2023-02-25T19:02:48.286Z,93324.97
2023-02-25T19:05:17.102Z,93320.31
2023-02-25T19:07:46.178Z,93322.56
2023-02-25T19:10:20.353Z,93302.34
2023-02-25T19:12:50.822Z,93324.31
2023-02-25T19:15:21.115Z,93327.25
2023-02-25T19:17:50.108Z,93312.91
2023-02-25T19:20:20.015Z,93302.56
2023-02-25T19:22:49.645Z,93325.19
2023-02-25T19:25:22.844Z,93334.84
2023-02-25T19:27:51.212Z,93319.84
2023-02-25T19:30:21.319Z,93326.31
2023-02-25T19:32:49.245Z,93322.91
2023-02-25T19:35:17.532Z,93321.22
2023-02-25T19:37:45.894Z,93331.31
2023-02-25T19:40:16.149Z,93323.69
2023-02-25T19:42:46.202Z,93293.03
2023-02-25T19:45:17.634Z,93326.00
2023-02-25T19:47:46.203Z,93334.38
2023-02-25T19:50:15.592Z,93349.19
2023-02-25T19:52:44.798Z,93334.63
2023-02-25T19:55:14.359Z,93310.06
2023-02-25T19:57:42.878Z,93317.03
2023-02-25T20:00:14.970Z,93330.75
2023-02-25T20:02:43.162Z,93323.38
2023-02-25T20:05:11.807Z,93296.41
2023-02-25T20:07:39.824Z,93306.44
2023-02-25T20:10:11.033Z,93324.63
2023-02-25T20:12:39.251Z,93332.00
2023-02-25T20:15:08.442Z,93317.47
2023-02-25T20:17:39.304Z,93323.16
2023-02-25T20:20:08.471Z,93317.25
2023-02-25T20:22:37.022Z,93316.31
2023-02-25T20:25:05.481Z,93318.47
2023-02-25T20:27:36.895Z,93320.44
2023-02-25T20:30:06.278Z,93327.34
2023-02-25T20:32:34.244Z,93311.09
2023-02-25T20:35:04.220Z,93304.03
2023-02-25T20:37:37.255Z,93334.75
2023-02-25T20:40:08.197Z,93309.72
2023-02-25T20:42:36.352Z,93326.47
2023-02-25T20:45:06.026Z,93330.31
2023-02-25T20:47:36.503Z,93327.56
2023-02-25T20:50:07.152Z,93324.06
2023-02-25T20:52:35.299Z,93326.34
2023-02-25T20:55:03.706Z,93328.84
2023-02-25T20:57:32.773Z,93330.31
2023-02-25T21:00:00.713Z,93341.31
2023-02-25T21:02:28.645Z,93342.34
2023-02-25T21:04:56.548Z,93327.22
2023-02-25T21:07:25.737Z,93328.38
2023-02-25T21:09:53.559Z,93333.72
2023-02-25T21:12:21.377Z,93312.91
2023-02-25T21:14:49.305Z,93318.84
2023-02-25T21:17:17.175Z,93312.91
2023-02-25T21:19:45.074Z,93309.06
2023-02-25T21:22:12.989Z,93314.88
2023-02-25T21:24:42.251Z,93315.53
2023-02-25T21:27:10.117Z,93308.25
2023-02-25T21:29:38.601Z,93308.94
2023-02-25T21:32:06.593Z,93308.25
2023-02-25T21:34:34.538Z,93305.56
2023-02-25T21:37:02.387Z,93301.91
2023-02-25T21:39:30.195Z,93321.31
2023-02-25T21:41:59.435Z,93316.09
2023-02-25T21:44:27.673Z,93322.59
2023-02-25T21:46:55.562Z,93309.50
2023-02-25T21:49:23.577Z,93287.69
2023-02-25T21:51:51.521Z,93299.84
2023-02-25T21:54:19.487Z,93305.97
2023-02-25T21:56:47.668Z,93315.53
2023-02-25T21:59:17.237Z,93313.25
2023-02-25T22:01:45.276Z,93306.56
2023-02-25T22:04:13.125Z,93315.66
2023-02-25T22:06:43.132Z,93307.91
2023-02-25T22:09:10.975Z,93308.94
2023-02-25T22:11:39.666Z,93312.22
2023-02-25T22:14:09.084Z,93330.97
2023-02-25T22:16:40.050Z,93329.38
2023-02-25T22:19:07.968Z,93337.56
2023-02-25T22:21:37.799Z,93338.81
2023-02-25T22:24:06.858Z,93348.97
2023-02-25T22:26:36.503Z,93358.38
2023-02-25T22:29:07.656Z,93344.41
2023-02-25T22:31:35.985Z,93339.53
2023-02-25T22:34:05.863Z,93353.03
2023-02-25T22:36:33.855Z,93369.38
2023-02-25T22:39:05.396Z,93368.47
2023-02-25T22:41:33.271Z,93382.13
2023-02-25T22:44:02.335Z,93353.03
2023-02-25T22:46:31.244Z,93369.06
2023-02-25T22:48:59.718Z,93371.69
2023-02-25T22:51:31.118Z,93361.50
2023-02-25T22:53:59.715Z,93366.34
2023-02-25T22:56:28.283Z,93371.38
2023-02-25T22:58:56.530Z,93341.22
2023-02-25T23:01:25.875Z,93390.47
2023-02-25T23:03:55.351Z,93360.25
2023-02-25T23:06:37.340Z,93377.75
2023-02-25T23:09:11.540Z,93379.69
2023-02-25T23:11:41.216Z,93383.97
2023-02-25T23:14:09.176Z,93381.78
2023-02-25T23:16:40.385Z,93404.75
2023-02-25T23:19:10.678Z,93383.38
2023-02-25T23:21:39.595Z,93380.69
2023-02-25T23:24:09.626Z,93398.50
2023-02-25T23:26:42.209Z,93417.94
2023-02-25T23:29:12.062Z,93372.94
2023-02-25T23:31:44.670Z,93396.81
2023-02-25T23:34:14.568Z,93415.69
2023-02-25T23:36:44.194Z,93385.69
2023-02-25T23:39:13.992Z,93401.44
2023-02-25T23:41:44.196Z,93400.56
2023-02-25T23:44:13.487Z,93403.75
2023-02-25T23:46:44.081Z,93389.38
2023-02-25T23:49:14.925Z,93393.47
2023-02-25T23:51:44.526Z,93394.63
2023-02-25T23:54:15.871Z,93408.34
2023-02-25T23:56:45.301Z,93385.69
2023-02-25T23:59:13.594Z,93371.84
